Time;durP1;ratioP1;P1;durP2;ratioP2;P2;SDS_P1;SDS_P2;PMS_P1;PMS_P2;Temp;Humidity;BMP_temperature;BMP_pressure;BME280_temperature;BME280_humidity;BME280_pressure;Samples;Min_cycle;Max_cycle;Signal;HPM_P1;HPM_P2
2023/12/04 00:00:15;;;;;;;24.73;15.77;;;1.60;92.00;;;3.18;65.17;101676.72;3082320;46;20508;-67
2023/12/04 00:02:43;;;;;;;23.47;15.90;;;1.60;92.20;;;3.19;64.88;101670.56;3081815;46;20490;-66
2023/12/04 00:05:11;;;;;;;24.37;15.07;;;1.60;92.10;;;3.18;64.61;101662.88;3082547;46;20426;-67
2023/12/04 00:07:40;;;;;;;21.70;14.97;;;1.60;92.00;;;3.17;64.34;101661.19;3082334;46;20480;-67
2023/12/04 00:10:08;;;;;;;24.70;16.43;;;1.60;91.80;;;3.16;64.62;101659.53;3082026;46;20507;-67
2023/12/04 00:12:37;;;;;;;23.10;15.13;;;1.60;91.80;;;3.10;64.05;101665.13;3081748;46;20442;-67
2023/12/04 00:15:06;;;;;;;24.30;15.53;;;1.60;91.50;;;3.01;64.10;101665.75;3082276;46;20446;-67
2023/12/04 00:17:39;;;;;;;24.20;15.93;;;1.60;91.40;;;2.93;64.12;101649.84;3082172;46;20457;-67
2023/12/04 00:20:09;;;;;;;25.03;14.47;;;1.60;91.40;;;2.92;64.72;101641.22;3082189;46;20431;-66
2023/12/04 00:22:38;;;;;;;24.67;14.90;;;1.50;91.40;;;2.94;64.62;101635.91;3081563;46;21012;-67
2023/12/04 00:25:07;;;;;;;24.87;15.07;;;1.50;91.50;;;2.86;64.36;101630.41;3081914;46;20514;-67
2023/12/04 00:27:36;;;;;;;24.13;15.53;;;1.50;91.30;;;2.85;64.36;101636.53;3081916;46;21129;-66
2023/12/04 00:30:05;;;;;;;24.73;14.93;;;1.50;91.40;;;2.86;64.67;101627.78;3081975;46;20516;-65
2023/12/04 00:32:34;;;;;;;26.37;15.90;;;1.40;91.40;;;2.83;64.30;101625.41;3081640;46;20564;-67
2023/12/04 00:35:02;;;;;;;23.73;15.73;;;1.40;91.30;;;2.78;64.15;101614.50;3081966;46;20434;-65
2023/12/04 00:37:31;;;;;;;22.93;15.17;;;1.40;91.20;;;2.79;64.27;101613.56;3081997;46;20476;-67
2023/12/04 00:40:00;;;;;;;26.73;14.27;;;1.40;91.30;;;2.78;64.50;101609.31;3081971;46;20491;-67
2023/12/04 00:42:28;;;;;;;26.30;15.83;;;1.40;91.30;;;2.74;64.36;101601.72;3081714;46;20455;-65
2023/12/04 00:44:57;;;;;;;23.33;15.00;;;1.40;91.30;;;2.68;64.16;101601.28;3081486;46;20450;-67
2023/12/04 00:47:25;;;;;;;23.17;14.93;;;1.30;91.20;;;2.65;64.38;101607.53;3081616;46;20474;-67
2023/12/04 00:49:54;;;;;;;23.27;14.47;;;1.30;91.20;;;2.64;64.79;101605.84;3081459;46;20474;-67
2023/12/04 00:52:23;;;;;;;23.70;15.20;;;1.30;91.30;;;2.62;64.75;101599.94;3081413;46;20461;-68
2023/12/04 00:54:51;;;;;;;24.17;15.27;;;1.30;91.30;;;2.65;64.72;101596.28;3081496;46;20458;-66
2023/12/04 00:57:19;;;;;;;25.60;15.33;;;1.30;91.40;;;2.67;64.51;101589.22;3081870;46;20459;-66
2023/12/04 00:59:49;;;;;;;22.77;14.70;;;1.30;91.40;;;2.70;64.58;101589.88;3081903;46;21077;-67
2023/12/04 01:02:17;;;;;;;24.10;14.67;;;1.30;91.40;;;2.73;64.48;101589.63;3081814;46;21043;-63
2023/12/04 01:04:45;;;;;;;23.73;14.77;;;1.30;91.40;;;2.74;64.33;101588.72;3081458;46;20479;-67
2023/12/04 01:07:15;;;;;;;22.37;15.00;;;1.30;91.40;;;2.74;64.47;101580.91;3081802;46;20458;-66
2023/12/04 01:09:43;;;;;;;22.47;14.37;;;1.30;91.40;;;2.80;64.44;101573.66;3081889;46;20442;-66
2023/12/04 01:12:12;;;;;;;23.27;15.63;;;1.30;91.50;;;2.76;64.35;101573.00;3081789;46;21041;-66
2023/12/04 01:14:40;;;;;;;22.23;13.87;;;1.30;91.30;;;2.80;64.36;101571.88;3081111;46;21016;-67
2023/12/04 01:17:08;;;;;;;21.57;14.13;;;1.40;91.40;;;2.81;64.14;101564.91;3081474;46;20556;-66
2023/12/04 01:19:37;;;;;;;22.83;15.20;;;1.30;91.30;;;2.82;64.39;101561.38;3081747;46;20461;-66
2023/12/04 01:22:05;;;;;;;25.07;15.27;;;1.40;91.30;;;2.87;64.46;101562.72;3081735;46;20469;-66
2023/12/04 01:24:34;;;;;;;24.73;14.90;;;1.40;91.40;;;2.93;64.15;101564.06;3080907;46;20450;-67
2023/12/04 01:27:02;;;;;;;23.30;14.90;;;1.40;91.40;;;2.96;64.15;101563.84;3081288;46;20432;-65
2023/12/04 01:29:32;;;;;;;23.50;14.73;;;1.40;91.40;;;2.95;64.04;101557.00;3081479;46;20985;-66
2023/12/04 01:32:00;;;;;;;22.53;14.00;;;1.50;91.30;;;2.92;64.19;101558.06;3081585;46;20494;-67
2023/12/04 01:34:28;;;;;;;22.07;14.80;;;1.50;91.30;;;2.91;64.04;101545.16;3080695;46;20446;-66
2023/12/04 01:36:57;;;;;;;24.17;14.80;;;1.50;91.30;;;2.89;64.06;101545.25;3081470;46;20572;-66
2023/12/04 01:39:26;;;;;;;25.90;14.97;;;1.50;91.20;;;2.83;64.32;101545.66;3081514;46;20463;-67
2023/12/04 01:41:54;;;;;;;22.03;13.60;;;1.50;91.20;;;2.79;64.51;101545.97;3081299;46;20533;-67
2023/12/04 01:44:24;;;;;;;22.70;14.20;;;1.50;91.20;;;2.82;64.58;101537.97;3080778;46;20530;-67
2023/12/04 01:46:52;;;;;;;22.30;14.97;;;1.40;91.30;;;2.84;64.53;101538.69;3080674;46;20462;-67
2023/12/04 01:49:21;;;;;;;24.33;15.30;;;1.50;91.40;;;2.81;64.48;101544.94;3080517;46;20568;-66
2023/12/04 01:51:49;;;;;;;22.20;14.27;;;1.40;91.30;;;2.78;64.48;101539.13;3080751;46;20458;-67
2023/12/04 01:54:18;;;;;;;22.30;14.50;;;1.40;91.30;;;2.74;64.64;101539.34;3080956;46;20530;-67
2023/12/04 01:56:47;;;;;;;24.97;14.97;;;1.40;91.30;;;2.70;64.83;101532.69;3080410;46;20461;-67
2023/12/04 01:59:16;;;;;;;22.37;14.30;;;1.40;91.40;;;2.70;64.86;101526.66;3081413;46;20438;-67
2023/12/04 02:01:45;;;;;;;24.03;14.53;;;1.40;91.50;;;2.72;65.18;101529.97;3080484;46;21182;-67
2023/12/04 02:04:13;;;;;;;23.23;13.73;;;1.40;91.50;;;2.72;65.14;101541.22;3080799;46;21262;-67
2023/12/04 02:06:42;;;;;;;22.97;13.97;;;1.40;91.70;;;2.74;65.40;101534.13;3081312;46;20503;-67
2023/12/04 02:09:16;;;;;;;20.93;13.93;;;1.30;91.70;;;2.79;65.31;101523.44;3080981;46;20453;-65
2023/12/04 02:11:44;;;;;;;20.93;13.67;;;1.30;91.80;;;2.87;65.16;101522.91;3081245;46;20989;-66
2023/12/04 02:14:12;;;;;;;21.60;13.43;;;1.40;91.90;;;2.85;65.11;101520.44;3080529;46;20498;-64
2023/12/04 02:16:44;;;;;;;21.63;14.07;;;1.40;92.00;;;2.91;65.34;101513.94;3080523;46;20478;-66
2023/12/04 02:19:13;;;;;;;22.10;13.63;;;1.40;92.00;;;2.96;65.32;101511.88;3080923;46;20466;-67
2023/12/04 02:21:42;;;;;;;24.00;13.23;;;1.40;92.00;;;2.99;65.45;101511.66;3080978;46;20434;-67
2023/12/04 02:24:10;;;;;;;21.87;13.73;;;1.40;92.00;;;3.05;65.04;101511.22;3079956;43;20535;-67
2023/12/04 02:26:54;;;;;;;20.67;13.17;;;1.50;92.10;;;3.01;65.01;101499.38;3080566;46;20431;-66
2023/12/04 02:29:32;;;;;;;22.70;14.03;;;1.50;92.00;;;3.04;65.21;101499.19;3081086;46;20549;-67
2023/12/04 02:32:05;;;;;;;21.27;13.23;;;1.50;92.10;;;2.98;65.42;101490.03;3079922;46;20438;-65
2023/12/04 02:34:36;;;;;;;21.93;13.57;;;1.50;92.00;;;2.92;65.49;101484.44;3079340;46;20580;-65
2023/12/04 02:37:06;;;;;;;21.57;13.80;;;1.50;91.90;;;2.93;65.66;101481.72;3080137;46;20644;-66
2023/12/04 02:39:37;;;;;;;19.97;13.20;;;1.50;91.90;;;2.95;65.49;101486.81;3080340;46;21019;-67
2023/12/04 02:42:06;;;;;;;19.67;12.80;;;1.50;91.90;;;2.99;65.37;101488.25;3079877;46;20462;-69
2023/12/04 02:44:34;;;;;;;21.23;12.97;;;1.50;92.00;;;2.98;65.84;101474.44;3079421;46;20551;-65
2023/12/04 02:47:03;;;;;;;23.30;13.53;;;1.50;92.10;;;3.00;65.79;101471.72;3080835;46;20571;-67
2023/12/04 02:49:31;;;;;;;21.77;13.20;;;1.50;92.20;;;3.03;65.88;101467.13;3080674;46;20573;-67
2023/12/04 02:52:00;;;;;;;21.50;12.93;;;1.60;92.30;;;3.07;65.80;101463.38;3080624;46;20438;-66
2023/12/04 02:54:28;;;;;;;20.77;12.40;;;1.50;92.30;;;3.09;65.76;101460.69;3080199;46;20472;-67
2023/12/04 02:56:57;;;;;;;20.50;12.77;;;1.60;92.40;;;3.12;66.07;101460.44;3080672;46;21123;-65
2023/12/04 02:59:25;;;;;;;21.33;12.43;;;1.60;92.50;;;3.14;65.87;101453.38;3080656;46;20474;-67
2023/12/04 03:01:53;;;;;;;19.50;12.33;;;1.60;92.50;;;3.18;65.89;101454.81;3080380;46;20587;-66
2023/12/04 03:04:22;;;;;;;20.27;13.03;;;1.60;92.50;;;3.18;66.03;101450.47;3080046;46;20464;-66
2023/12/04 03:06:50;;;;;;;18.70;12.50;;;1.60;92.60;;;3.21;66.03;101452.03;3080917;46;20466;-67
2023/12/04 03:09:18;;;;;;;21.20;13.50;;;1.60;92.50;;;3.20;66.01;101442.53;3079784;46;21143;-67
2023/12/04 03:12:27;;;;;;;19.93;12.87;;;1.60;92.50;;;3.17;66.11;101438.38;3080361;46;20466;-68
2023/12/04 03:14:55;;;;;;;18.30;11.73;;;1.70;92.60;;;3.19;66.22;101435.66;3082418;46;20442;-66
2023/12/04 03:17:25;;;;;;;22.00;12.47;;;1.70;92.50;;;3.18;66.26;101436.63;3082956;46;21113;-65
2023/12/04 03:19:53;;;;;;;20.43;12.13;;;1.70;92.70;;;3.11;66.44;101435.41;3082644;46;20471;-65
2023/12/04 03:22:21;;;;;;;19.70;12.50;;;1.70;92.70;;;3.16;66.81;101434.13;3082464;46;20437;-66
2023/12/04 03:24:50;;;;;;;18.87;12.17;;;1.60;92.70;;;3.16;66.90;101426.31;3082314;46;21017;-67
2023/12/04 03:27:18;;;;;;;18.13;12.10;;;1.70;93.30;;;3.13;66.81;101423.13;3082556;46;20446;-66
2023/12/04 03:29:46;;;;;;;20.23;12.80;;;1.70;92.90;;;3.10;67.16;101425.94;3082947;46;20504;-66
2023/12/04 03:32:15;;;;;;;21.67;13.10;;;1.70;93.00;;;3.12;67.11;101418.84;3082640;46;20430;-67
2023/12/04 03:34:43;;;;;;;17.13;11.27;;;1.70;93.10;;;3.09;67.41;101416.50;3081775;46;20522;-66
2023/12/04 03:37:11;;;;;;;23.47;13.43;;;1.70;93.20;;;3.09;67.67;101408.69;3082894;46;20595;-66
2023/12/04 03:39:40;;;;;;;15.40;10.47;;;1.70;93.20;;;3.11;67.57;101414.59;3082635;46;20438;-66
2023/12/04 03:42:08;;;;;;;19.73;12.13;;;1.70;93.20;;;3.07;67.92;101406.19;3082907;46;20439;-66
2023/12/04 03:44:36;;;;;;;20.03;12.20;;;1.60;93.40;;;3.10;68.05;101405.13;3081961;46;20446;-67
2023/12/04 03:47:05;;;;;;;21.10;11.47;;;1.60;93.30;;;3.08;67.91;101407.84;3082197;46;20505;-64
2023/12/04 03:49:33;;;;;;;20.70;12.87;;;1.60;93.50;;;3.11;68.16;101392.03;3082535;46;20498;-67
2023/12/04 03:52:02;;;;;;;16.63;11.30;;;1.70;93.50;;;3.13;68.33;101404.91;3082590;46;21177;-66
2023/12/04 03:54:30;;;;;;;18.77;12.23;;;1.70;93.60;;;3.17;68.07;101393.34;3081956;46;20447;-67
2023/12/04 03:56:59;;;;;;;17.73;11.43;;;1.60;93.60;;;3.23;67.89;101398.13;3083024;46;20999;-64
2023/12/04 03:59:27;;;;;;;17.03;11.73;;;1.70;93.60;;;3.28;67.87;101393.41;3082348;46;20427;-66
2023/12/04 04:01:56;;;;;;;18.13;11.93;;;1.70;93.70;;;3.30;67.96;101394.94;3082453;46;20438;-66
2023/12/04 04:04:24;;;;;;;20.27;11.93;;;1.70;93.80;;;3.31;67.75;101390.56;3081766;46;21094;-67
2023/12/04 04:06:53;;;;;;;19.07;11.67;;;1.70;93.80;;;3.29;67.91;101385.50;3082394;46;20571;-66
2023/12/04 04:09:22;;;;;;;19.40;11.87;;;1.70;93.90;;;3.25;68.22;101384.06;3082499;46;20549;-66
2023/12/04 04:11:51;;;;;;;17.57;11.30;;;1.70;93.90;;;3.22;68.63;101380.84;3082010;46;20532;-67
2023/12/04 04:14:19;;;;;;;21.03;11.60;;;1.70;93.90;;;3.25;68.69;101378.03;3081584;46;20485;-65
2023/12/04 04:16:47;;;;;;;19.80;12.10;;;1.70;93.90;;;3.25;68.65;101372.81;3082454;46;20575;-66
2023/12/04 04:19:16;;;;;;;17.07;11.00;;;1.70;94.00;;;3.27;68.59;101370.94;3082409;46;20467;-66
2023/12/04 04:21:44;;;;;;;15.83;11.40;;;1.70;94.10;;;3.28;69.08;101380.41;3082578;46;20434;-65
2023/12/04 04:24:13;;;;;;;19.57;11.13;;;1.70;94.20;;;3.28;68.76;101364.81;3081377;46;21023;-67
2023/12/04 04:26:41;;;;;;;14.47;9.97;;;1.70;94.20;;;3.33;68.68;101365.28;3081989;46;20567;-65
2023/12/04 04:29:10;;;;;;;18.40;12.00;;;1.80;94.20;;;3.33;68.69;101357.47;3082256;46;21041;-65
2023/12/04 04:31:38;;;;;;;17.63;11.23;;;1.80;94.30;;;3.33;68.83;101370.47;3082035;46;20521;-67
2023/12/04 04:34:07;;;;;;;19.53;10.77;;;1.80;94.30;;;3.32;68.94;101358.44;3081000;46;20444;-67
2023/12/04 04:36:35;;;;;;;16.07;10.03;;;1.80;94.40;;;3.35;69.25;101358.22;3081979;46;20490;-67
2023/12/04 04:39:05;;;;;;;18.80;10.73;;;1.80;94.40;;;3.37;68.99;101356.31;3082068;46;20462;-67
2023/12/04 04:41:33;;;;;;;16.97;10.70;;;1.80;94.40;;;3.40;69.21;101346.50;3081429;46;20455;-67
2023/12/04 04:44:01;;;;;;;15.10;9.70;;;1.80;94.50;;;3.32;69.29;101342.81;3081521;46;20488;-67
2023/12/04 04:46:30;;;;;;;16.00;10.77;;;1.80;94.50;;;3.27;69.40;101342.34;3081979;46;21195;-67
2023/12/04 04:48:58;;;;;;;16.50;10.17;;;1.80;94.40;;;3.23;69.72;101344.31;3082496;46;20464;-67
2023/12/04 04:51:29;;;;;;;18.13;10.80;;;1.80;94.40;;;3.21;69.75;101340.19;3081884;46;20458;-66
2023/12/04 04:53:57;;;;;;;15.37;10.23;;;1.80;94.50;;;3.19;69.94;101342.88;3081285;46;20445;-67
2023/12/04 04:56:26;;;;;;;15.70;10.57;;;1.80;94.50;;;3.18;69.87;101335.22;3081986;46;20442;-67
2023/12/04 04:58:54;;;;;;;16.40;9.97;;;1.80;94.50;;;3.21;69.72;101335.81;3081150;46;20434;-65
2023/12/04 05:01:23;;;;;;;16.27;10.53;;;1.70;94.40;;;3.23;69.85;101333.09;3081789;46;20427;-66
2023/12/04 05:03:51;;;;;;;17.87;10.57;;;1.70;94.60;;;3.28;69.58;101331.00;3081514;46;21059;-65
2023/12/04 05:06:22;;;;;;;15.63;10.57;;;1.70;94.60;;;3.28;69.49;101326.59;3081897;46;20734;-66
2023/12/04 05:08:52;;;;;;;17.47;10.17;;;1.80;94.70;;;3.27;69.86;101324.13;3081722;46;20682;-67
2023/12/04 05:11:20;;;;;;;16.97;10.70;;;1.80;94.60;;;3.22;69.88;101321.03;3081368;46;20431;-67
2023/12/04 05:13:48;;;;;;;15.67;9.70;;;1.80;94.50;;;3.19;69.68;101321.25;3081027;46;20446;-67
2023/12/04 05:16:17;;;;;;;14.20;10.03;;;1.80;94.50;;;3.18;70.04;101320.44;3081844;46;20515;-66
2023/12/04 05:18:45;;;;;;;16.03;10.30;;;1.70;94.50;;;3.23;69.96;101312.31;3081466;46;20437;-65
2023/12/04 05:21:14;;;;;;;16.83;10.33;;;1.70;94.60;;;3.18;69.71;101309.22;3081583;46;20467;-66
2023/12/04 05:23:42;;;;;;;16.17;10.23;;;1.80;94.70;;;3.18;69.83;101304.00;3081242;46;20482;-65
2023/12/04 05:26:10;;;;;;;16.50;10.10;;;1.70;94.60;;;3.17;69.90;101303.16;3081320;46;20508;-64
2023/12/04 05:28:39;;;;;;;22.57;13.13;;;1.70;94.60;;;3.17;69.87;101302.34;3081227;46;20518;-66
2023/12/04 05:31:08;;;;;;;16.67;10.90;;;1.70;94.60;;;3.21;69.91;101309.78;3081366;46;20427;-66
2023/12/04 05:33:36;;;;;;;14.03;9.77;;;1.80;94.70;;;3.24;70.03;101303.53;3080771;46;20447;-65
2023/12/04 05:36:09;;;;;;;16.07;9.90;;;1.70;94.70;;;3.22;69.80;101297.63;3080490;46;21021;-69
2023/12/04 05:38:38;;;;;;;15.57;10.03;;;1.70;94.70;;;3.23;69.95;101301.91;3081146;46;20497;-66
2023/12/04 05:41:06;;;;;;;20.10;11.27;;;1.70;94.80;;;3.22;70.09;101297.63;3081629;46;20490;-67
2023/12/04 05:43:34;;;;;;;18.23;10.27;;;1.70;94.70;;;3.19;70.06;101300.44;3080896;46;20466;-65
2023/12/04 05:46:03;;;;;;;17.07;10.23;;;1.70;94.70;;;3.21;70.22;101298.59;3081376;46;20435;-64
2023/12/04 05:48:32;;;;;;;16.90;11.10;;;1.70;94.80;;;3.22;70.28;101300.22;3081486;46;20516;-66
2023/12/04 05:51:00;;;;;;;17.07;11.23;;;1.70;94.80;;;3.21;70.13;101301.19;3080899;46;20434;-66
2023/12/04 05:53:29;;;;;;;17.03;10.97;;;1.70;94.80;;;3.23;70.17;101297.50;3080835;46;20474;-66
2023/12/04 05:55:57;;;;;;;17.97;10.57;;;1.70;94.90;;;3.28;70.18;101299.78;3081294;46;20522;-67
2023/12/04 05:58:25;;;;;;;17.23;11.53;;;1.70;94.90;;;3.29;70.21;101291.03;3081023;46;20438;-67
2023/12/04 06:00:54;;;;;;;19.77;12.13;;;1.70;94.90;;;3.29;69.96;101291.88;3081452;46;20442;-67
2023/12/04 06:03:22;;;;;;;15.40;10.50;;;1.80;95.00;;;3.32;70.15;101290.81;3080862;46;20508;-67
2023/12/04 06:05:51;;;;;;;14.57;10.10;;;1.80;95.00;;;3.38;69.87;101296.38;3081293;46;20485;-67
2023/12/04 06:08:24;;;;;;;17.93;10.87;;;1.80;95.00;;;3.45;70.12;101286.34;3081175;46;20526;-67
2023/12/04 06:10:55;;;;;;;16.93;10.93;;;1.80;95.10;;;3.50;69.87;101283.38;3080708;46;21026;-67
2023/12/04 06:13:24;;;;;;;18.90;11.43;;;1.90;95.10;;;3.44;69.59;101282.09;3079521;46;20460;-66
2023/12/04 06:15:52;;;;;;;15.77;10.73;;;1.90;95.00;;;3.46;70.06;101282.78;3081176;46;20470;-66
2023/12/04 06:18:21;;;;;;;15.43;10.33;;;1.90;95.00;;;3.49;69.70;101277.38;3081215;46;20434;-66
2023/12/04 06:20:51;;;;;;;17.50;11.00;;;1.90;95.00;;;3.49;69.57;101272.16;3080930;46;20516;-67
2023/12/04 06:23:20;;;;;;;18.73;11.07;;;1.90;94.90;;;3.44;69.86;101269.09;3080506;46;21036;-67
2023/12/04 06:25:49;;;;;;;14.00;10.17;;;1.90;94.80;;;3.44;70.03;101279.50;3080391;46;20468;-66
2023/12/04 06:28:17;;;;;;;16.07;10.83;;;1.90;94.80;;;3.46;69.95;101272.38;3080622;46;20534;-66
2023/12/04 06:30:47;;;;;;;18.23;11.53;;;1.90;94.80;;;3.41;69.80;101275.34;3080733;46;21189;-66
2023/12/04 06:33:18;;;;;;;18.63;11.70;;;1.90;94.80;;;3.33;70.13;101259.47;3080703;46;20451;-67
2023/12/04 06:35:47;;;;;;;17.43;11.73;;;1.90;94.80;;;3.29;69.96;101259.81;3080326;46;20996;-66
2023/12/04 06:38:17;;;;;;;19.33;12.17;;;1.90;94.80;;;3.23;70.08;101255.09;3080893;46;20442;-67
2023/12/04 06:40:46;;;;;;;16.80;11.03;;;1.90;94.80;;;3.20;70.31;101255.31;3080728;46;21087;-65
2023/12/04 06:43:18;;;;;;;15.60;10.53;;;1.80;94.80;;;3.17;70.69;101256.38;3080467;46;20472;-67
2023/12/04 06:45:47;;;;;;;18.97;11.93;;;1.80;94.90;;;3.14;70.87;101255.75;3080672;46;20561;-66
2023/12/04 06:48:16;;;;;;;16.17;11.50;;;1.90;95.20;;;3.12;70.69;101263.69;3082215;46;21028;-67
2023/12/04 06:50:44;;;;;;;15.63;9.97;;;1.80;94.80;;;3.11;70.97;101261.19;3083026;46;20501;-67
2023/12/04 06:53:13;;;;;;;16.90;10.57;;;1.80;94.90;;;3.15;70.77;101257.41;3082605;46;20470;-66
2023/12/04 06:55:41;;;;;;;20.50;10.80;;;1.80;95.00;;;3.16;70.84;101259.09;3083032;46;20532;-64
2023/12/04 06:58:09;;;;;;;17.17;11.57;;;1.80;95.00;;;3.14;70.41;101259.19;3082947;46;20462;-66
2023/12/04 07:00:38;;;;;;;17.90;11.23;;;1.80;94.90;;;3.09;70.38;101253.50;3083234;46;20512;-66
2023/12/04 07:03:06;;;;;;;17.87;10.77;;;1.80;94.80;;;3.04;70.58;101260.00;3082849;46;20490;-66
2023/12/04 07:05:35;;;;;;;19.93;11.13;;;1.80;94.70;;;3.05;70.70;101257.28;3082997;46;20451;-67
2023/12/04 07:08:03;;;;;;;15.63;10.13;;;1.80;95.00;;;3.12;70.59;101255.88;3082205;46;20518;-65
2023/12/04 07:10:32;;;;;;;16.37;10.90;;;1.70;94.60;;;3.15;70.08;101262.63;3082871;46;20437;-67
2023/12/04 07:13:01;;;;;;;18.63;10.47;;;1.80;94.60;;;3.19;70.10;101261.44;3082574;46;20450;-66
2023/12/04 07:15:30;;;;;;;18.03;11.77;;;1.80;94.60;;;3.20;69.88;101257.91;3083084;46;20501;-66
2023/12/04 07:17:58;;;;;;;18.20;11.77;;;1.80;94.60;;;3.22;69.99;101254.25;3082878;46;21040;-65
2023/12/04 07:20:26;;;;;;;18.63;12.00;;;1.80;94.60;;;3.28;69.74;101247.78;3082692;46;20438;-64
2023/12/04 07:22:57;;;;;;;20.03;11.57;;;1.80;94.60;;;3.32;69.32;101257.00;3082452;46;20438;-66
2023/12/04 07:25:26;;;;;;;20.33;11.60;;;1.80;94.50;;;3.42;69.35;101250.16;3082584;46;20428;-67
2023/12/04 07:27:54;;;;;;;20.20;11.33;;;1.90;94.60;;;3.42;69.02;101255.38;3082382;46;21007;-65
2023/12/04 07:30:24;;;;;;;17.20;11.97;;;1.90;94.40;;;3.40;68.43;101249.44;3082487;46;20433;-66
2023/12/04 07:32:53;;;;;;;19.07;11.13;;;1.90;94.20;;;3.41;68.64;101243.28;3082382;46;20426;-66
2023/12/04 07:35:22;;;;;;;20.83;11.73;;;1.90;94.20;;;3.45;68.58;101243.91;3082561;46;20575;-69
2023/12/04 07:37:50;;;;;;;17.60;12.07;;;1.90;94.10;;;3.46;68.11;101245.53;3082763;46;20433;-66
2023/12/04 07:40:18;;;;;;;19.10;12.03;;;1.90;94.00;;;3.51;68.04;101241.66;3082478;46;21087;-67
2023/12/04 07:42:47;;;;;;;19.70;11.27;;;1.90;94.00;;;3.54;67.91;101245.81;3082159;46;20482;-63
2023/12/04 07:45:15;;;;;;;17.53;10.90;;;2.00;93.90;;;3.54;67.69;101246.63;3082518;46;20446;-67
2023/12/04 07:47:44;;;;;;;19.63;12.57;;;2.00;93.60;;;3.58;67.48;101245.44;3082171;46;20516;-67
2023/12/04 07:50:12;;;;;;;16.67;10.87;;;2.00;93.60;;;3.62;66.93;101240.81;3082500;46;20437;-67
2023/12/04 07:52:41;;;;;;;17.70;11.13;;;2.10;93.50;;;3.64;67.11;101252.78;3081664;46;21045;-65
2023/12/04 07:55:09;;;;;;;15.83;10.53;;;2.10;93.40;;;3.67;66.77;101249.94;3082304;46;20478;-66
2023/12/04 07:57:38;;;;;;;17.33;10.90;;;2.10;93.30;;;3.67;66.55;101244.72;3082243;46;21014;-65
2023/12/04 08:00:07;;;;;;;16.03;10.97;;;2.10;93.20;;;3.74;66.24;101245.91;3081667;46;20643;-66
2023/12/04 08:02:38;;;;;;;16.70;10.93;;;2.20;93.30;;;3.77;65.94;101240.47;3082363;46;20530;-66
2023/12/04 08:05:06;;;;;;;18.73;11.93;;;2.20;92.90;;;3.79;65.39;101245.56;3082375;46;20435;-67
2023/12/04 08:07:37;;;;;;;18.37;11.30;;;2.20;92.70;;;3.82;65.62;101240.97;3082301;46;20526;-66
2023/12/04 08:10:07;;;;;;;18.63;11.73;;;2.20;92.70;;;3.82;64.54;101240.13;3082291;46;20438;-66
2023/12/04 08:12:35;;;;;;;18.33;11.00;;;2.20;92.30;;;3.82;64.77;101233.16;3079679;43;20439;-65
2023/12/04 08:15:05;;;;;;;16.03;10.83;;;2.30;92.30;;;3.86;64.51;101231.97;3079387;46;20434;-67
2023/12/04 08:17:34;;;;;;;17.30;11.60;;;2.30;92.20;;;3.90;64.51;101240.34;3082187;46;20427;-65
2023/12/04 08:20:04;;;;;;;18.13;11.80;;;2.30;92.10;;;3.94;64.58;101220.94;3080882;46;20510;-63
2023/12/04 08:22:32;;;;;;;17.50;10.90;;;2.30;92.00;;;3.93;63.91;101225.31;3082079;46;20478;-69
2023/12/04 08:25:01;;;;;;;18.43;10.87;;;2.30;91.80;;;3.99;64.17;101234.44;3079774;43;20451;-66
2023/12/04 08:27:32;;;;;;;15.83;10.07;;;2.30;91.90;;;3.96;63.55;101222.50;3081736;46;20434;-66
2023/12/04 08:30:01;;;;;;;15.00;10.00;;;2.40;91.50;;;3.95;63.72;101225.19;3081220;46;20460;-66
2023/12/04 08:32:30;;;;;;;15.23;10.13;;;2.40;91.50;;;3.98;63.45;101217.97;3081473;46;21026;-66
2023/12/04 08:34:58;;;;;;;17.73;11.00;;;2.40;91.40;;;3.95;63.04;101213.00;3081366;46;20443;-64
2023/12/04 08:37:27;;;;;;;18.87;11.03;;;2.40;91.20;;;4.01;63.39;101217.75;3081936;46;20437;-66
2023/12/04 08:39:55;;;;;;;16.43;11.10;;;2.40;91.40;;;4.00;62.80;101215.25;3082074;46;20532;-67
2023/12/04 08:42:24;;;;;;;13.73;10.23;;;2.50;91.10;;;3.94;62.47;101216.56;3079313;43;21012;-66
2023/12/04 08:44:53;;;;;;;18.83;10.50;;;2.50;90.80;;;3.97;62.91;101205.91;3080792;46;21036;-66
2023/12/04 08:47:21;;;;;;;18.43;10.40;;;2.50;90.80;;;3.95;62.70;101207.81;3080784;46;21035;-68
2023/12/04 08:49:49;;;;;;;16.20;10.37;;;2.50;90.70;;;3.97;62.84;101208.50;3080353;46;20527;-65
2023/12/04 08:52:18;;;;;;;18.50;11.37;;;2.40;90.80;;;3.95;62.69;101201.75;3080604;46;20463;-67
2023/12/04 08:54:47;;;;;;;16.30;9.87;;;2.50;90.70;;;3.98;62.28;101207.56;3080063;46;20995;-66
2023/12/04 08:57:15;;;;;;;14.30;9.90;;;2.50;90.70;;;4.01;62.56;101199.53;3079302;46;21349;-69
2023/12/04 08:59:44;;;;;;;17.47;10.37;;;2.50;90.70;;;4.02;62.00;101198.56;3078998;46;20454;-68
2023/12/04 09:02:12;;;;;;;14.70;10.30;;;2.50;90.50;;;4.06;62.06;101199.97;3079271;46;20454;-68
2023/12/04 09:04:41;;;;;;;16.87;11.13;;;2.50;90.50;;;4.07;61.92;101196.41;3079600;46;20466;-68
2023/12/04 09:07:10;;;;;;;17.47;10.47;;;2.50;90.40;;;4.05;61.72;101187.91;3079439;46;20525;-68
2023/12/04 09:09:59;;;;;;;17.33;10.53;;;2.60;90.30;;;4.04;61.91;101180.22;3077909;46;20474;-69
2023/12/04 09:12:37;;;;;;;14.53;10.53;;;2.60;90.20;;;4.03;61.68;101182.00;3079592;46;20443;-67
2023/12/04 09:15:06;;;;;;;15.70;9.97;;;2.60;90.20;;;4.04;62.01;101188.84;3080100;46;20462;-69
2023/12/04 09:17:36;;;;;;;16.53;10.27;;;2.60;90.20;;;3.97;62.00;101185.06;3080538;46;20524;-68
2023/12/04 09:20:07;;;;;;;13.87;9.63;;;2.60;90.10;;;3.94;61.95;101184.50;3079260;46;20512;-68
2023/12/04 09:22:40;;;;;;;16.60;10.20;;;2.60;90.00;;;3.97;61.83;101185.06;3081001;44;20564;-68
2023/12/04 09:25:11;;;;;;;16.00;10.33;;;2.60;90.10;;;3.94;61.35;101197.53;3080774;46;20431;-68
2023/12/04 09:27:40;;;;;;;17.03;9.17;;;2.60;90.00;;;3.95;61.86;101186.97;3080741;46;20434;-71
2023/12/04 09:30:09;;;;;;;14.30;9.93;;;2.60;90.00;;;3.97;61.48;101192.88;3080576;46;20517;-67
2023/12/04 09:32:37;;;;;;;16.07;9.63;;;2.50;89.80;;;3.92;61.41;101181.19;3080131;46;20455;-68
2023/12/04 09:35:07;;;;;;;16.47;10.17;;;2.50;89.60;;;3.88;62.09;101188.41;3080437;46;21108;-68
2023/12/04 09:37:35;;;;;;;14.33;9.37;;;2.60;89.70;;;3.90;61.71;101193.47;3079012;46;20432;-68
2023/12/04 09:40:07;;;;;;;14.60;9.60;;;2.60;90.00;;;3.92;62.01;101192.41;3080735;46;20492;-68
2023/12/04 09:42:36;;;;;;;14.03;9.77;;;2.60;89.90;;;3.95;61.70;101192.19;3079932;46;21105;-67
2023/12/04 09:45:08;;;;;;;14.03;9.60;;;2.60;89.80;;;3.99;61.17;101188.38;3079894;46;20449;-69
2023/12/04 09:47:37;;;;;;;14.17;9.83;;;2.60;89.70;;;4.00;61.53;101179.63;3079896;46;20553;-66
2023/12/04 09:50:07;;;;;;;16.17;10.77;;;2.60;89.50;;;4.01;61.41;101175.25;3073397;46;20442;-69
2023/12/04 09:52:37;;;;;;;16.93;9.43;;;2.60;89.40;;;3.97;60.97;101179.88;3077654;44;20434;-68
2023/12/04 09:55:06;;;;;;;19.77;10.83;;;2.60;89.30;;;4.04;61.34;101168.00;3080799;46;20452;-68
2023/12/04 09:57:35;;;;;;;13.97;9.37;;;2.60;89.50;;;4.15;61.25;101158.53;3080189;46;20972;-68
2023/12/04 10:00:06;;;;;;;15.57;9.70;;;2.70;89.70;;;4.17;61.06;101156.63;3079045;46;20444;-67
2023/12/04 10:02:36;;;;;;;14.87;9.60;;;2.70;89.50;;;4.17;60.93;101160.06;3077253;46;20545;-67
2023/12/04 10:05:06;;;;;;;12.50;8.87;;;2.70;88.90;;;4.21;60.34;101155.44;3078329;43;20463;-68
2023/12/04 10:07:36;;;;;;;14.70;9.37;;;2.70;88.90;;;4.23;60.25;101154.34;3079663;46;20427;-68
2023/12/04 10:10:07;;;;;;;13.98;11.65;;;2.80;88.60;;;4.63;59.66;101150.19;3077634;46;22310;-68
2023/12/04 10:12:37;;;;;;;14.53;10.17;;;2.70;89.40;;;4.57;59.32;101142.00;3078979;46;20430;-68
2023/12/04 10:15:10;;;;;;;15.77;10.03;;;2.80;88.50;;;4.54;59.17;101150.91;3079540;46;20564;-68
2023/12/04 10:17:43;;;;;;;18.57;12.37;;;2.90;88.30;;;4.60;59.64;101145.22;3080214;46;20568;-68
2023/12/04 10:20:18;;;;;;;14.50;9.87;;;2.90;88.60;;;4.58;59.45;101138.47;3080194;46;21114;-68